sensor_id;sensor_type;location;lat;lon;timestamp;pressure;altitude;pressure_sealevel;temperature;humidity
74466;BME280;62916;50.044;15.938;2023-01-19T00:01:53;97685.89;;;22.02;45.72
74466;BME280;62916;50.044;15.938;2023-01-19T00:04:24;97689.70;;;22.00;45.75
74466;BME280;62916;50.044;15.938;2023-01-19T00:06:55;97691.02;;;21.98;45.57
74466;BME280;62916;50.044;15.938;2023-01-19T00:09:26;97695.89;;;21.99;45.55
74466;BME280;62916;50.044;15.938;2023-01-19T00:12:01;97699.02;;;21.96;45.60
74466;BME280;62916;50.044;15.938;2023-01-19T00:14:32;97707.38;;;21.95;45.58
74466;BME280;62916;50.044;15.938;2023-01-19T00:17:03;97710.39;;;21.90;45.64
74466;BME280;62916;50.044;15.938;2023-01-19T00:19:35;97713.83;;;21.89;45.54
74466;BME280;62916;50.044;15.938;2023-01-19T00:22:05;97716.67;;;21.87;45.51
74466;BME280;62916;50.044;15.938;2023-01-19T00:24:36;97716.40;;;21.86;45.47
74466;BME280;62916;50.044;15.938;2023-01-19T00:27:07;97717.82;;;21.85;45.49
74466;BME280;62916;50.044;15.938;2023-01-19T00:29:38;97722.52;;;21.83;45.48
74466;BME280;62916;50.044;15.938;2023-01-19T00:32:08;97724.15;;;21.81;45.57
74466;BME280;62916;50.044;15.938;2023-01-19T00:34:39;97727.08;;;21.78;45.54
74466;BME280;62916;50.044;15.938;2023-01-19T00:37:11;97728.63;;;21.76;45.53
74466;BME280;62916;50.044;15.938;2023-01-19T00:39:41;97733.13;;;21.75;45.50
74466;BME280;62916;50.044;15.938;2023-01-19T00:42:13;97738.13;;;21.73;45.51
74466;BME280;62916;50.044;15.938;2023-01-19T00:45:02;97745.05;;;21.69;45.36
74466;BME280;62916;50.044;15.938;2023-01-19T00:47:33;97757.27;;;21.68;45.60
74466;BME280;62916;50.044;15.938;2023-01-19T00:50:05;97756.30;;;21.64;45.51
74466;BME280;62916;50.044;15.938;2023-01-19T00:52:36;97763.21;;;21.61;45.69
74466;BME280;62916;50.044;15.938;2023-01-19T00:55:10;97760.09;;;21.59;45.51
74466;BME280;62916;50.044;15.938;2023-01-19T00:57:44;97762.44;;;21.60;45.77
74466;BME280;62916;50.044;15.938;2023-01-19T01:02:49;97766.63;;;21.56;45.73
74466;BME280;62916;50.044;15.938;2023-01-19T01:05:21;97766.14;;;21.54;45.60
74466;BME280;62916;50.044;15.938;2023-01-19T01:07:51;97770.18;;;21.54;45.62
74466;BME280;62916;50.044;15.938;2023-01-19T01:10:24;97772.61;;;21.52;45.59
74466;BME280;62916;50.044;15.938;2023-01-19T01:12:55;97773.08;;;21.51;45.48
74466;BME280;62916;50.044;15.938;2023-01-19T01:15:27;97771.41;;;21.50;45.66
74466;BME280;62916;50.044;15.938;2023-01-19T01:17:58;97768.44;;;21.46;45.68
74466;BME280;62916;50.044;15.938;2023-01-19T01:20:28;97772.21;;;21.43;45.61
74466;BME280;62916;50.044;15.938;2023-01-19T01:23:02;97769.98;;;21.42;45.71
74466;BME280;62916;50.044;15.938;2023-01-19T01:25:33;97774.42;;;21.39;45.66
74466;BME280;62916;50.044;15.938;2023-01-19T01:28:07;97785.38;;;21.39;45.69
74466;BME280;62916;50.044;15.938;2023-01-19T01:30:39;97789.80;;;21.39;45.69
74466;BME280;62916;50.044;15.938;2023-01-19T01:33:11;97791.80;;;21.38;45.81
74466;BME280;62916;50.044;15.938;2023-01-19T01:35:43;97797.62;;;21.36;45.78
74466;BME280;62916;50.044;15.938;2023-01-19T01:38:13;97799.58;;;21.34;45.60
74466;BME280;62916;50.044;15.938;2023-01-19T01:40:44;97799.09;;;21.31;45.88
74466;BME280;62916;50.044;15.938;2023-01-19T01:43:17;97800.48;;;21.29;45.73
74466;BME280;62916;50.044;15.938;2023-01-19T01:45:48;97800.93;;;21.28;45.62
74466;BME280;62916;50.044;15.938;2023-01-19T01:48:22;97796.52;;;21.28;45.78
74466;BME280;62916;50.044;15.938;2023-01-19T01:50:58;97793.14;;;21.26;45.70
74466;BME280;62916;50.044;15.938;2023-01-19T01:53:50;97793.19;;;21.25;45.90
74466;BME280;62916;50.044;15.938;2023-01-19T01:56:26;97790.48;;;21.23;45.83
74466;BME280;62916;50.044;15.938;2023-01-19T01:59:04;97791.27;;;21.20;45.83
74466;BME280;62916;50.044;15.938;2023-01-19T02:01:36;97793.90;;;21.20;45.81
74466;BME280;62916;50.044;15.938;2023-01-19T02:04:25;97791.34;;;21.18;45.92
74466;BME280;62916;50.044;15.938;2023-01-19T02:06:56;97787.98;;;21.16;45.88
74466;BME280;62916;50.044;15.938;2023-01-19T02:09:44;97783.46;;;21.14;45.74
74466;BME280;62916;50.044;15.938;2023-01-19T02:12:33;97787.36;;;21.15;45.96
74466;BME280;62916;50.044;15.938;2023-01-19T02:15:21;97787.91;;;21.14;45.81
74466;BME280;62916;50.044;15.938;2023-01-19T02:17:52;97780.35;;;21.12;45.89
74466;BME280;62916;50.044;15.938;2023-01-19T02:20:24;97779.54;;;21.10;45.81
74466;BME280;62916;50.044;15.938;2023-01-19T02:23:02;97778.48;;;21.06;45.86
74466;BME280;62916;50.044;15.938;2023-01-19T02:25:37;97781.57;;;21.04;45.89
74466;BME280;62916;50.044;15.938;2023-01-19T02:28:09;97775.77;;;21.02;46.13
74466;BME280;62916;50.044;15.938;2023-01-19T02:30:41;97773.45;;;21.03;46.12
74466;BME280;62916;50.044;15.938;2023-01-19T02:33:12;97773.84;;;21.02;46.09
74466;BME280;62916;50.044;15.938;2023-01-19T02:35:44;97775.45;;;21.02;46.03
74466;BME280;62916;50.044;15.938;2023-01-19T02:38:16;97774.67;;;21.03;46.03
74466;BME280;62916;50.044;15.938;2023-01-19T02:40:49;97776.04;;;21.01;46.07
74466;BME280;62916;50.044;15.938;2023-01-19T02:43:20;97782.19;;;20.99;45.98
74466;BME280;62916;50.044;15.938;2023-01-19T02:45:52;97792.79;;;20.98;46.13
74466;BME280;62916;50.044;15.938;2023-01-19T02:48:23;97794.22;;;20.97;46.06
74466;BME280;62916;50.044;15.938;2023-01-19T02:50:57;97801.91;;;20.96;46.08
74466;BME280;62916;50.044;15.938;2023-01-19T02:53:51;97804.32;;;20.95;46.13
74466;BME280;62916;50.044;15.938;2023-01-19T02:56:51;97808.80;;;20.94;45.94
74466;BME280;62916;50.044;15.938;2023-01-19T02:59:37;97812.89;;;20.91;46.23
74466;BME280;62916;50.044;15.938;2023-01-19T03:02:22;97817.94;;;20.90;46.15
74466;BME280;62916;50.044;15.938;2023-01-19T03:05:02;97818.56;;;20.87;46.08
74466;BME280;62916;50.044;15.938;2023-01-19T03:07:46;97823.58;;;20.88;46.13
74466;BME280;62916;50.044;15.938;2023-01-19T03:10:27;97821.79;;;20.90;46.06
74466;BME280;62916;50.044;15.938;2023-01-19T03:13:06;97824.84;;;20.98;46.01
74466;BME280;62916;50.044;15.938;2023-01-19T03:15:45;97827.13;;;21.06;45.89
74466;BME280;62916;50.044;15.938;2023-01-19T03:18:21;97823.34;;;21.16;45.65
74466;BME280;62916;50.044;15.938;2023-01-19T03:20:56;97817.70;;;21.26;45.56
74466;BME280;62916;50.044;15.938;2023-01-19T03:23:31;97815.39;;;21.35;45.26
74466;BME280;62916;50.044;15.938;2023-01-19T03:26:04;97815.39;;;21.43;45.25
74466;BME280;62916;50.044;15.938;2023-01-19T03:28:39;97817.87;;;21.50;45.08
74466;BME280;62916;50.044;15.938;2023-01-19T03:31:15;97818.30;;;21.57;45.10
74466;BME280;62916;50.044;15.938;2023-01-19T03:33:49;97824.36;;;21.63;44.89
74466;BME280;62916;50.044;15.938;2023-01-19T03:36:24;97825.56;;;21.68;45.00
74466;BME280;62916;50.044;15.938;2023-01-19T03:38:58;97818.26;;;21.72;44.92
74466;BME280;62916;50.044;15.938;2023-01-19T03:41:32;97819.58;;;21.75;44.87
74466;BME280;62916;50.044;15.938;2023-01-19T03:44:05;97811.17;;;21.76;44.73
74466;BME280;62916;50.044;15.938;2023-01-19T03:46:37;97815.77;;;21.83;44.88
74466;BME280;62916;50.044;15.938;2023-01-19T03:49:08;97817.14;;;21.86;44.85
74466;BME280;62916;50.044;15.938;2023-01-19T03:51:40;97823.45;;;21.90;44.90
74466;BME280;62916;50.044;15.938;2023-01-19T03:54:11;97827.25;;;21.96;44.88
74466;BME280;62916;50.044;15.938;2023-01-19T03:56:42;97834.27;;;21.99;44.79
74466;BME280;62916;50.044;15.938;2023-01-19T03:59:13;97841.12;;;22.01;44.84
74466;BME280;62916;50.044;15.938;2023-01-19T04:01:45;97846.20;;;22.03;44.76
74466;BME280;62916;50.044;15.938;2023-01-19T04:04:16;97845.50;;;22.08;44.89
74466;BME280;62916;50.044;15.938;2023-01-19T04:06:47;97853.14;;;22.10;44.65
74466;BME280;62916;50.044;15.938;2023-01-19T04:09:19;97859.42;;;22.12;44.64
74466;BME280;62916;50.044;15.938;2023-01-19T04:11:49;97861.67;;;22.15;44.69
74466;BME280;62916;50.044;15.938;2023-01-19T04:14:21;97863.60;;;22.17;44.65
74466;BME280;62916;50.044;15.938;2023-01-19T04:16:51;97870.23;;;22.18;44.62
74466;BME280;62916;50.044;15.938;2023-01-19T04:19:22;97876.79;;;22.21;44.52
74466;BME280;62916;50.044;15.938;2023-01-19T04:21:53;97879.50;;;22.25;44.48
74466;BME280;62916;50.044;15.938;2023-01-19T04:24:25;97883.20;;;22.28;44.53
74466;BME280;62916;50.044;15.938;2023-01-19T04:26:56;97885.58;;;22.30;44.55
74466;BME280;62916;50.044;15.938;2023-01-19T04:29:27;97888.09;;;22.33;44.63
74466;BME280;62916;50.044;15.938;2023-01-19T04:31:58;97887.19;;;22.35;44.50
74466;BME280;62916;50.044;15.938;2023-01-19T04:34:29;97883.62;;;22.37;44.47
74466;BME280;62916;50.044;15.938;2023-01-19T04:37:00;97890.70;;;22.40;44.44
74466;BME280;62916;50.044;15.938;2023-01-19T04:39:30;97902.13;;;22.43;44.55
74466;BME280;62916;50.044;15.938;2023-01-19T04:42:01;97903.90;;;22.45;44.46
74466;BME280;62916;50.044;15.938;2023-01-19T04:44:31;97901.83;;;22.49;44.44
74466;BME280;62916;50.044;15.938;2023-01-19T04:47:02;97902.66;;;22.53;44.48
74466;BME280;62916;50.044;15.938;2023-01-19T04:49:33;97903.58;;;22.54;44.60
74466;BME280;62916;50.044;15.938;2023-01-19T04:52:06;97905.86;;;22.55;44.68
74466;BME280;62916;50.044;15.938;2023-01-19T04:54:37;97906.69;;;22.55;44.59
74466;BME280;62916;50.044;15.938;2023-01-19T04:57:08;97915.34;;;22.58;44.58
74466;BME280;62916;50.044;15.938;2023-01-19T04:59:39;97922.77;;;22.58;44.68
74466;BME280;62916;50.044;15.938;2023-01-19T05:02:10;97927.48;;;22.61;44.52
74466;BME280;62916;50.044;15.938;2023-01-19T05:04:40;97932.64;;;22.63;44.39
74466;BME280;62916;50.044;15.938;2023-01-19T05:07:11;97941.50;;;22.64;44.45
74466;BME280;62916;50.044;15.938;2023-01-19T05:09:42;97947.77;;;22.67;44.19
74466;BME280;62916;50.044;15.938;2023-01-19T05:12:13;97957.43;;;22.65;44.36
74466;BME280;62916;50.044;15.938;2023-01-19T05:14:44;97965.90;;;22.68;44.39
74466;BME280;62916;50.044;15.938;2023-01-19T05:17:15;97970.64;;;22.71;44.51
74466;BME280;62916;50.044;15.938;2023-01-19T05:19:45;97968.88;;;22.74;44.64
74466;BME280;62916;50.044;15.938;2023-01-19T05:22:17;97967.62;;;22.77;44.68
74466;BME280;62916;50.044;15.938;2023-01-19T05:24:48;97966.00;;;22.80;44.52
74466;BME280;62916;50.044;15.938;2023-01-19T05:27:19;97970.46;;;22.81;44.59
74466;BME280;62916;50.044;15.938;2023-01-19T05:29:49;97969.86;;;22.83;44.63
74466;BME280;62916;50.044;15.938;2023-01-19T05:32:20;97974.52;;;22.84;44.59
74466;BME280;62916;50.044;15.938;2023-01-19T05:34:51;97978.27;;;22.86;44.50
74466;BME280;62916;50.044;15.938;2023-01-19T05:37:22;97986.88;;;22.87;44.54
74466;BME280;62916;50.044;15.938;2023-01-19T05:39:53;97989.59;;;22.88;44.48
74466;BME280;62916;50.044;15.938;2023-01-19T05:42:23;97996.14;;;22.88;44.59
74466;BME280;62916;50.044;15.938;2023-01-19T05:44:54;97998.16;;;22.89;44.46
74466;BME280;62916;50.044;15.938;2023-01-19T05:47:25;97996.20;;;22.88;44.37
74466;BME280;62916;50.044;15.938;2023-01-19T05:49:58;97994.01;;;22.88;44.36
74466;BME280;62916;50.044;15.938;2023-01-19T05:52:29;97999.45;;;22.89;44.42
74466;BME280;62916;50.044;15.938;2023-01-19T05:55:00;98000.89;;;22.88;44.30
74466;BME280;62916;50.044;15.938;2023-01-19T05:57:30;98002.57;;;22.88;44.22
74466;BME280;62916;50.044;15.938;2023-01-19T06:00:01;98004.69;;;22.88;44.29
74466;BME280;62916;50.044;15.938;2023-01-19T06:02:32;98003.13;;;22.88;44.17
74466;BME280;62916;50.044;15.938;2023-01-19T06:05:04;98005.04;;;22.87;44.05
74466;BME280;62916;50.044;15.938;2023-01-19T06:07:35;97997.98;;;22.86;44.00
74466;BME280;62916;50.044;15.938;2023-01-19T06:10:07;98002.27;;;22.83;44.10
74466;BME280;62916;50.044;15.938;2023-01-19T06:12:39;98004.35;;;22.82;44.04
74466;BME280;62916;50.044;15.938;2023-01-19T06:15:11;98003.83;;;22.82;44.04
74466;BME280;62916;50.044;15.938;2023-01-19T06:17:42;98002.66;;;22.79;44.00
74466;BME280;62916;50.044;15.938;2023-01-19T06:20:14;97996.69;;;22.77;43.99
74466;BME280;62916;50.044;15.938;2023-01-19T06:22:44;97992.23;;;22.74;43.96
74466;BME280;62916;50.044;15.938;2023-01-19T06:25:16;97993.25;;;22.70;44.04
74466;BME280;62916;50.044;15.938;2023-01-19T06:27:46;97995.27;;;22.67;43.98
74466;BME280;62916;50.044;15.938;2023-01-19T06:30:19;97991.06;;;22.64;43.99
74466;BME280;62916;50.044;15.938;2023-01-19T06:32:49;97985.88;;;22.61;44.05
74466;BME280;62916;50.044;15.938;2023-01-19T06:35:20;97984.11;;;22.58;44.14
74466;BME280;62916;50.044;15.938;2023-01-19T06:37:51;97988.11;;;22.56;44.03
74466;BME280;62916;50.044;15.938;2023-01-19T06:40:22;97990.52;;;22.53;44.06
74466;BME280;62916;50.044;15.938;2023-01-19T06:42:53;97988.03;;;22.51;44.02
74466;BME280;62916;50.044;15.938;2023-01-19T06:45:24;97989.79;;;22.48;43.83
74466;BME280;62916;50.044;15.938;2023-01-19T06:47:55;97991.48;;;22.45;43.91
74466;BME280;62916;50.044;15.938;2023-01-19T06:50:26;97991.04;;;22.41;43.93
74466;BME280;62916;50.044;15.938;2023-01-19T06:52:56;97999.32;;;22.39;43.97
74466;BME280;62916;50.044;15.938;2023-01-19T06:55:28;97998.98;;;22.38;43.83
74466;BME280;62916;50.044;15.938;2023-01-19T06:57:59;97995.29;;;22.36;44.02
74466;BME280;62916;50.044;15.938;2023-01-19T07:00:31;98000.49;;;22.35;43.96
74466;BME280;62916;50.044;15.938;2023-01-19T07:03:01;98001.31;;;22.33;43.90
74466;BME280;62916;50.044;15.938;2023-01-19T07:05:34;98006.50;;;22.31;43.96
74466;BME280;62916;50.044;15.938;2023-01-19T07:08:06;98010.23;;;22.29;43.97
74466;BME280;62916;50.044;15.938;2023-01-19T07:10:37;98008.31;;;22.26;44.01
74466;BME280;62916;50.044;15.938;2023-01-19T07:13:27;98015.17;;;22.24;43.86
74466;BME280;62916;50.044;15.938;2023-01-19T07:15:58;98016.52;;;22.21;43.85
74466;BME280;62916;50.044;15.938;2023-01-19T07:18:29;98016.61;;;22.18;44.04
74466;BME280;62916;50.044;15.938;2023-01-19T07:21:00;98016.15;;;22.16;43.90
74466;BME280;62916;50.044;15.938;2023-01-19T07:23:31;98020.21;;;22.15;43.82
74466;BME280;62916;50.044;15.938;2023-01-19T07:26:02;98025.44;;;22.12;43.97
74466;BME280;62916;50.044;15.938;2023-01-19T07:28:33;98030.84;;;22.09;43.92
74466;BME280;62916;50.044;15.938;2023-01-19T07:31:06;98030.89;;;22.04;44.09
74466;BME280;62916;50.044;15.938;2023-01-19T07:33:38;98035.75;;;22.03;44.08
74466;BME280;62916;50.044;15.938;2023-01-19T07:36:10;98041.58;;;22.01;43.93
74466;BME280;62916;50.044;15.938;2023-01-19T07:38:41;98043.17;;;21.98;43.93
74466;BME280;62916;50.044;15.938;2023-01-19T07:41:12;98046.10;;;21.96;44.07
74466;BME280;62916;50.044;15.938;2023-01-19T07:43:43;98050.61;;;21.94;43.93
74466;BME280;62916;50.044;15.938;2023-01-19T07:46:13;98055.43;;;21.93;43.95
74466;BME280;62916;50.044;15.938;2023-01-19T07:48:44;98058.44;;;21.92;44.07
74466;BME280;62916;50.044;15.938;2023-01-19T07:51:16;98059.39;;;21.88;44.03
74466;BME280;62916;50.044;15.938;2023-01-19T07:53:50;98059.55;;;21.88;44.12
74466;BME280;62916;50.044;15.938;2023-01-19T07:56:21;98060.79;;;21.90;43.95
74466;BME280;62916;50.044;15.938;2023-01-19T07:58:53;98061.44;;;21.89;43.89
74466;BME280;62916;50.044;15.938;2023-01-19T08:01:23;98061.76;;;21.87;43.84
74466;BME280;62916;50.044;15.938;2023-01-19T08:03:54;98065.30;;;21.87;43.94
74466;BME280;62916;50.044;15.938;2023-01-19T08:06:28;98061.61;;;21.85;43.94
74466;BME280;62916;50.044;15.938;2023-01-19T08:09:02;98061.19;;;21.84;43.95
74466;BME280;62916;50.044;15.938;2023-01-19T08:11:34;98055.86;;;21.84;43.80
74466;BME280;62916;50.044;15.938;2023-01-19T08:14:05;98060.67;;;21.83;43.73
74466;BME280;62916;50.044;15.938;2023-01-19T08:16:39;98057.79;;;21.82;43.86
74466;BME280;62916;50.044;15.938;2023-01-19T08:19:09;98065.02;;;21.80;43.86
74466;BME280;62916;50.044;15.938;2023-01-19T08:21:40;98072.87;;;21.79;43.73
74466;BME280;62916;50.044;15.938;2023-01-19T08:24:19;98073.55;;;21.78;43.61
74466;BME280;62916;50.044;15.938;2023-01-19T08:26:49;98071.64;;;21.76;43.69
74466;BME280;62916;50.044;15.938;2023-01-19T08:29:20;98079.21;;;21.73;43.64
74466;BME280;62916;50.044;15.938;2023-01-19T08:31:51;98082.55;;;21.72;43.75
74466;BME280;62916;50.044;15.938;2023-01-19T08:34:24;98088.73;;;21.71;43.70
74466;BME280;62916;50.044;15.938;2023-01-19T08:36:55;98096.39;;;21.69;43.80
74466;BME280;62916;50.044;15.938;2023-01-19T08:39:26;98102.55;;;21.70;43.61
74466;BME280;62916;50.044;15.938;2023-01-19T08:41:57;98106.48;;;21.69;43.57
74466;BME280;62916;50.044;15.938;2023-01-19T08:44:29;98112.16;;;21.67;43.77
74466;BME280;62916;50.044;15.938;2023-01-19T08:46:59;98112.06;;;21.64;43.76
74466;BME280;62916;50.044;15.938;2023-01-19T08:49:30;98117.14;;;21.64;43.55
74466;BME280;62916;50.044;15.938;2023-01-19T08:52:01;98124.52;;;21.63;43.66
74466;BME280;62916;50.044;15.938;2023-01-19T08:54:32;98126.45;;;21.63;43.74
74466;BME280;62916;50.044;15.938;2023-01-19T08:57:04;98130.20;;;21.66;43.70
74466;BME280;62916;50.044;15.938;2023-01-19T08:59:35;98129.98;;;21.65;43.57
74466;BME280;62916;50.044;15.938;2023-01-19T09:02:07;98128.26;;;21.61;43.66
74466;BME280;62916;50.044;15.938;2023-01-19T09:04:39;98130.55;;;21.56;43.80
74466;BME280;62916;50.044;15.938;2023-01-19T09:07:10;98134.60;;;21.50;43.77
74466;BME280;62916;50.044;15.938;2023-01-19T09:09:41;98135.50;;;21.47;43.69
74466;BME280;62916;50.044;15.938;2023-01-19T09:12:14;98134.70;;;21.43;43.84
74466;BME280;62916;50.044;15.938;2023-01-19T09:14:45;98139.34;;;21.44;43.83
74466;BME280;62916;50.044;15.938;2023-01-19T09:17:16;98139.96;;;21.48;43.68
74466;BME280;62916;50.044;15.938;2023-01-19T09:19:47;98136.30;;;21.50;43.59
74466;BME280;62916;50.044;15.938;2023-01-19T09:22:18;98133.84;;;21.51;43.65
74466;BME280;62916;50.044;15.938;2023-01-19T09:24:49;98131.02;;;21.51;43.63
74466;BME280;62916;50.044;15.938;2023-01-19T09:27:19;98127.15;;;21.48;43.70
74466;BME280;62916;50.044;15.938;2023-01-19T09:29:51;98126.62;;;21.49;43.82
74466;BME280;62916;50.044;15.938;2023-01-19T09:32:22;98133.08;;;21.50;43.65
74466;BME280;62916;50.044;15.938;2023-01-19T09:34:53;98135.55;;;21.49;43.57
74466;BME280;62916;50.044;15.938;2023-01-19T09:37:24;98137.64;;;21.49;43.62
74466;BME280;62916;50.044;15.938;2023-01-19T09:39:55;98136.19;;;21.51;43.67
74466;BME280;62916;50.044;15.938;2023-01-19T09:42:32;98130.90;;;21.52;43.58
74466;BME280;62916;50.044;15.938;2023-01-19T09:45:09;98124.15;;;21.50;43.62
74466;BME280;62916;50.044;15.938;2023-01-19T09:47:43;98127.81;;;21.49;43.66
74466;BME280;62916;50.044;15.938;2023-01-19T09:50:18;98129.09;;;21.51;43.56
74466;BME280;62916;50.044;15.938;2023-01-19T09:52:56;98130.93;;;21.53;43.49
74466;BME280;62916;50.044;15.938;2023-01-19T09:55:30;98130.80;;;21.53;43.61
74466;BME280;62916;50.044;15.938;2023-01-19T09:58:01;98133.34;;;21.54;43.58
74466;BME280;62916;50.044;15.938;2023-01-19T10:00:33;98139.77;;;21.56;43.50
74466;BME280;62916;50.044;15.938;2023-01-19T10:03:13;98142.82;;;21.56;43.52
74466;BME280;62916;50.044;15.938;2023-01-19T10:05:49;98137.75;;;21.54;43.55
74466;BME280;62916;50.044;15.938;2023-01-19T10:08:26;98137.36;;;21.54;43.57
74466;BME280;62916;50.044;15.938;2023-01-19T10:11:00;98133.75;;;21.57;43.49
74466;BME280;62916;50.044;15.938;2023-01-19T10:13:35;98134.30;;;21.54;43.50
74466;BME280;62916;50.044;15.938;2023-01-19T10:16:18;98140.83;;;21.52;43.57
74466;BME280;62916;50.044;15.938;2023-01-19T10:18:53;98137.61;;;21.52;43.50
74466;BME280;62916;50.044;15.938;2023-01-19T10:21:28;98131.17;;;21.48;43.73
74466;BME280;62916;50.044;15.938;2023-01-19T10:24:05;98130.91;;;21.50;43.49
74466;BME280;62916;50.044;15.938;2023-01-19T10:26:41;98134.21;;;21.54;43.48
74466;BME280;62916;50.044;15.938;2023-01-19T10:29:17;98135.04;;;21.53;43.47
74466;BME280;62916;50.044;15.938;2023-01-19T10:31:52;98136.40;;;21.52;43.46
74466;BME280;62916;50.044;15.938;2023-01-19T10:34:28;98133.81;;;21.54;43.45
74466;BME280;62916;50.044;15.938;2023-01-19T10:37:03;98138.33;;;21.56;43.39
74466;BME280;62916;50.044;15.938;2023-01-19T10:39:35;98142.56;;;21.58;43.24
74466;BME280;62916;50.044;15.938;2023-01-19T10:42:14;98145.46;;;21.55;43.35
74466;BME280;62916;50.044;15.938;2023-01-19T10:44:45;98145.31;;;21.55;43.41
74466;BME280;62916;50.044;15.938;2023-01-19T10:47:18;98143.00;;;21.56;43.51
74466;BME280;62916;50.044;15.938;2023-01-19T10:49:49;98141.23;;;21.54;43.49
74466;BME280;62916;50.044;15.938;2023-01-19T10:52:27;98142.92;;;21.54;43.38
74466;BME280;62916;50.044;15.938;2023-01-19T10:54:59;98142.75;;;21.52;43.37
74466;BME280;62916;50.044;15.938;2023-01-19T10:57:33;98141.91;;;21.53;43.36
74466;BME280;62916;50.044;15.938;2023-01-19T11:00:27;98143.25;;;21.52;43.36
74466;BME280;62916;50.044;15.938;2023-01-19T11:02:58;98147.55;;;21.49;43.60
74466;BME280;62916;50.044;15.938;2023-01-19T11:05:32;98149.66;;;21.49;43.33
74466;BME280;62916;50.044;15.938;2023-01-19T11:08:22;98154.52;;;21.47;43.38
74466;BME280;62916;50.044;15.938;2023-01-19T11:11:00;98146.56;;;21.45;43.47
74466;BME280;62916;50.044;15.938;2023-01-19T11:14:04;98137.47;;;21.45;43.62
74466;BME280;62916;50.044;15.938;2023-01-19T11:16:39;98134.41;;;21.46;43.56
74466;BME280;62916;50.044;15.938;2023-01-19T11:19:23;98131.35;;;21.44;43.56
74466;BME280;62916;50.044;15.938;2023-01-19T11:22:08;98131.15;;;21.43;43.36
74466;BME280;62916;50.044;15.938;2023-01-19T11:24:39;98131.14;;;21.38;43.57
74466;BME280;62916;50.044;15.938;2023-01-19T11:27:10;98131.56;;;21.34;43.55
74466;BME280;62916;50.044;15.938;2023-01-19T11:29:49;98130.61;;;21.32;43.68
74466;BME280;62916;50.044;15.938;2023-01-19T11:32:24;98128.77;;;21.28;43.53
74466;BME280;62916;50.044;15.938;2023-01-19T11:34:57;98125.14;;;21.27;43.49
74466;BME280;62916;50.044;15.938;2023-01-19T11:37:31;98127.15;;;21.30;43.50
74466;BME280;62916;50.044;15.938;2023-01-19T11:40:01;98125.98;;;21.28;43.47
74466;BME280;62916;50.044;15.938;2023-01-19T11:42:36;98122.55;;;21.24;43.58
74466;BME280;62916;50.044;15.938;2023-01-19T11:45:13;98120.13;;;21.24;43.64
74466;BME280;62916;50.044;15.938;2023-01-19T11:47:47;98116.06;;;21.22;43.56
74466;BME280;62916;50.044;15.938;2023-01-19T11:50:24;98110.33;;;21.21;43.54
74466;BME280;62916;50.044;15.938;2023-01-19T11:53:03;98114.55;;;21.20;43.55
74466;BME280;62916;50.044;15.938;2023-01-19T11:55:39;98118.55;;;21.17;43.61
74466;BME280;62916;50.044;15.938;2023-01-19T11:58:13;98115.72;;;21.15;43.43
74466;BME280;62916;50.044;15.938;2023-01-19T12:00:47;98114.28;;;21.13;43.61
74466;BME280;62916;50.044;15.938;2023-01-19T12:03:24;98112.98;;;21.13;43.59
74466;BME280;62916;50.044;15.938;2023-01-19T12:06:02;98112.15;;;21.12;43.49
74466;BME280;62916;50.044;15.938;2023-01-19T12:08:36;98108.73;;;21.13;43.73
74466;BME280;62916;50.044;15.938;2023-01-19T12:11:13;98108.98;;;21.15;43.58
74466;BME280;62916;50.044;15.938;2023-01-19T12:13:46;98108.39;;;21.17;43.47
74466;BME280;62916;50.044;15.938;2023-01-19T12:16:18;98100.97;;;21.17;43.59
74466;BME280;62916;50.044;15.938;2023-01-19T12:18:54;98101.10;;;21.18;43.55
74466;BME280;62916;50.044;15.938;2023-01-19T12:21:25;98097.11;;;21.19;43.59
74466;BME280;62916;50.044;15.938;2023-01-19T12:24:04;98094.80;;;21.18;43.55
74466;BME280;62916;50.044;15.938;2023-01-19T12:26:47;98100.77;;;21.18;43.46
74466;BME280;62916;50.044;15.938;2023-01-19T12:29:21;98100.45;;;21.18;43.51
74466;BME280;62916;50.044;15.938;2023-01-19T12:32:16;98100.46;;;21.18;43.54
74466;BME280;62916;50.044;15.938;2023-01-19T12:34:49;98100.36;;;21.18;43.55
74466;BME280;62916;50.044;15.938;2023-01-19T12:37:37;98100.96;;;21.18;43.30
74466;BME280;62916;50.044;15.938;2023-01-19T12:40:22;98101.39;;;21.15;43.36
74466;BME280;62916;50.044;15.938;2023-01-19T12:43:00;98103.29;;;21.14;43.37
74466;BME280;62916;50.044;15.938;2023-01-19T12:45:35;98101.81;;;21.16;43.44
74466;BME280;62916;50.044;15.938;2023-01-19T12:48:23;98106.21;;;21.17;43.49
74466;BME280;62916;50.044;15.938;2023-01-19T12:50:56;98112.34;;;21.15;43.53
74466;BME280;62916;50.044;15.938;2023-01-19T12:53:26;98108.95;;;21.12;43.34
74466;BME280;62916;50.044;15.938;2023-01-19T12:56:06;98109.70;;;21.13;43.32
74466;BME280;62916;50.044;15.938;2023-01-19T12:58:38;98111.05;;;21.11;43.36
74466;BME280;62916;50.044;15.938;2023-01-19T13:01:16;98118.04;;;21.08;43.60
74466;BME280;62916;50.044;15.938;2023-01-19T13:04:01;98118.89;;;21.04;43.52
74466;BME280;62916;50.044;15.938;2023-01-19T13:07:07;98125.47;;;21.02;43.46
74466;BME280;62916;50.044;15.938;2023-01-19T13:09:39;98127.34;;;21.00;43.63
74466;BME280;62916;50.044;15.938;2023-01-19T13:12:25;98134.11;;;21.00;43.58
74466;BME280;62916;50.044;15.938;2023-01-19T13:15:27;98138.21;;;20.98;43.63
74466;BME280;62916;50.044;15.938;2023-01-19T13:17:58;98143.16;;;20.94;43.67
74466;BME280;62916;50.044;15.938;2023-01-19T13:20:35;98145.94;;;20.91;43.66
74466;BME280;62916;50.044;15.938;2023-01-19T13:23:20;98149.01;;;20.89;43.72
74466;BME280;62916;50.044;15.938;2023-01-19T13:25:57;98151.08;;;20.87;43.75
74466;BME280;62916;50.044;15.938;2023-01-19T13:28:34;98152.36;;;20.86;43.74